Time;durP1;ratioP1;P1;durP2;ratioP2;P2;SDS_P1;SDS_P2;PMS_P1;PMS_P2;Temp;Humidity;BMP_temperature;BMP_pressure;BME280_temperature;BME280_humidity;BME280_pressure;Samples;Min_cycle;Max_cycle;Signal;HPM_P1;HPM_P2
2021/08/03 00:01:10;;;;;;;;;10.75;8.00;;;;;19.75;100.00;101128.00;5120984;27;45295;-69
2021/08/03 00:03:49;;;;;;;;;8.25;8.00;;;;;19.76;100.00;101131.50;5121242;27;45416;-72
2021/08/03 00:09:39;;;;;;;;;8.50;7.25;;;;;19.75;100.00;101140.38;5120961;27;45302;-69
2021/08/03 00:12:06;;;;;;;;;8.50;8.00;;;;;19.75;100.00;101135.94;5120955;27;45302;-67
2021/08/03 00:14:32;;;;;;;;;9.00;9.00;;;;;19.77;100.00;101138.50;5121052;27;45540;-68
2021/08/03 00:16:59;;;;;;;;;9.00;9.00;;;;;19.64;100.00;101113.50;5121387;27;45403;-68
2021/08/03 00:19:26;;;;;;;;;9.00;8.25;;;;;19.76;100.00;101132.34;5120662;27;47382;-69
2021/08/03 00:21:52;;;;;;;;;9.75;7.50;;;;;19.72;100.00;101125.47;5120676;27;45354;-69
2021/08/03 00:24:27;;;;;;;;;10.00;8.50;;;;;19.75;100.00;101125.34;5120674;27;45294;-68
2021/08/03 00:26:53;;;;;;;;;11.00;9.75;;;;;19.68;100.00;101120.38;5102502;27;45523;-69
2021/08/03 00:29:18;;;;;;;;;10.75;9.00;;;;;19.68;100.00;101123.88;5120379;27;46568;-70
2021/08/03 00:31:47;;;;;;;;;9.75;9.50;;;;;19.75;100.00;101127.13;5120305;27;45224;-69
2021/08/03 00:34:12;;;;;;;;;8.50;8.00;;;;;19.71;100.00;101123.75;5120726;27;45340;-68
2021/08/03 00:36:38;;;;;;;;;9.50;7.00;;;;;19.68;100.00;101123.03;5120532;27;45500;-68
2021/08/03 00:39:03;;;;;;;;;11.25;9.00;;;;;19.62;100.00;101113.56;5118851;27;46249;-68
2021/08/03 00:41:35;;;;;;;;;10.00;9.00;;;;;19.55;100.00;101107.69;5120186;27;45484;-68
2021/08/03 00:44:00;;;;;;;;;10.50;9.50;;;;;19.52;100.00;101105.16;5120484;27;45275;-69
2021/08/03 00:46:26;;;;;;;;;9.00;8.00;;;;;19.56;100.00;101108.56;5120723;27;45194;-68
2021/08/03 00:48:51;;;;;;;;;6.00;6.00;;;;;19.40;100.00;101073.06;5120101;27;45494;-68
2021/08/03 00:54:38;;;;;;;;;9.75;8.00;;;;;19.49;100.00;101091.22;5120359;27;45377;-69
2021/08/03 00:57:06;;;;;;;;;9.25;7.25;;;;;19.54;100.00;101102.47;5120243;27;45436;-68
2021/08/03 00:59:31;;;;;;;;;10.00;9.25;;;;;19.37;100.00;101082.00;5119930;27;46712;-69
2021/08/03 01:01:57;;;;;;;;;8.25;8.25;;;;;19.54;100.00;101108.63;5120127;27;45472;-68
2021/08/03 01:04:22;;;;;;;;;9.00;8.00;;;;;19.51;100.00;101107.88;5120319;27;45412;-68
2021/08/03 01:07:16;;;;;;;;;7.50;7.50;;;;;19.53;100.00;101101.63;5120049;27;45515;-68
2021/08/03 01:09:44;;;;;;;;;9.75;7.75;;;;;19.54;100.00;101099.84;5119624;27;46575;-67
2021/08/03 01:12:15;;;;;;;;;7.75;6.50;;;;;19.53;100.00;101098.97;5119655;27;45729;-70
2021/08/03 01:14:47;;;;;;;;;8.00;7.50;;;;;19.44;100.00;101079.94;5120171;27;45244;-67
2021/08/03 01:17:37;;;;;;;;;9.00;8.00;;;;;19.47;100.00;101083.34;5120182;27;45344;-67
2021/08/03 01:20:14;;;;;;;;;12.25;9.50;;;;;19.50;100.00;101088.47;5108544;27;47496;-67
2021/08/03 01:23:17;;;;;;;;;7.75;7.75;;;;;19.54;100.00;101094.53;5119727;27;45322;-68
2021/08/03 01:25:48;;;;;;;;;13.00;10.50;;;;;19.54;100.00;101095.38;5119826;27;45376;-68
2021/08/03 01:28:22;;;;;;;;;8.00;7.25;;;;;19.53;100.00;101087.47;5120081;27;45366;-68
2021/08/03 01:31:10;;;;;;;;;9.00;9.00;;;;;19.54;100.00;101079.50;5119616;27;46966;-68
2021/08/03 01:33:44;;;;;;;;;10.25;9.00;;;;;19.56;100.00;101082.94;5119929;27;45639;-68
2021/08/03 01:36:11;;;;;;;;;11.50;11.00;;;;;19.48;100.00;101073.59;5120085;27;45315;-68
2021/08/03 01:38:41;;;;;;;;;10.25;9.00;;;;;19.49;100.00;101070.03;5119838;27;45330;-67
2021/08/03 01:41:09;;;;;;;;;9.00;9.00;;;;;19.53;100.00;101074.25;5119674;27;46459;-69
2021/08/03 01:43:36;;;;;;;;;10.00;8.75;;;;;19.53;100.00;101071.59;5101377;27;45539;-71
2021/08/03 01:46:03;;;;;;;;;10.75;8.50;;;;;19.47;100.00;101074.53;5119639;27;45495;-69
2021/08/03 01:48:34;;;;;;;;;10.25;8.25;;;;;19.45;100.00;101068.41;5119562;27;45414;-69
2021/08/03 01:51:00;;;;;;;;;9.75;9.50;;;;;19.49;100.00;101075.31;5118912;27;47116;-69
2021/08/03 01:53:27;;;;;;;;;11.00;10.75;;;;;19.42;100.00;101063.25;5119326;27;45496;-69
2021/08/03 01:55:58;;;;;;;;;12.25;10.75;;;;;19.48;100.00;101074.47;5119818;27;45335;-69
2021/08/03 01:58:25;;;;;;;;;10.50;10.00;;;;;19.46;100.00;101068.38;5119483;27;45535;-68
2021/08/03 02:00:51;;;;;;;;;10.00;10.00;;;;;19.47;100.00;101070.09;5118994;27;46665;-67
2021/08/03 02:03:20;;;;;;;;;10.75;9.25;;;;;19.42;100.00;101061.47;5118821;27;45462;-68
2021/08/03 02:05:47;;;;;;;;;9.50;9.00;;;;;19.47;100.00;101074.53;5119230;27;45304;-67
2021/08/03 02:08:16;;;;;;;;;10.75;9.25;;;;;19.48;100.00;101073.59;5119484;27;45470;-67
2021/08/03 02:10:41;;;;;;;;;11.00;10.00;;;;;19.39;100.00;101058.97;5118843;27;46739;-67
2021/08/03 02:13:07;;;;;;;;;11.25;10.00;;;;;19.44;100.00;101075.50;5119218;27;45418;-67
2021/08/03 02:15:33;;;;;;;;;10.00;8.75;;;;;19.49;100.00;101081.47;5119233;27;45298;-67
2021/08/03 02:17:59;;;;;;;;;14.25;13.00;;;;;19.45;100.00;101071.06;5119202;27;45383;-68
2021/08/03 02:20:24;;;;;;;;;13.25;11.50;;;;;19.36;100.00;101069.72;5119145;27;46547;-67
2021/08/03 02:22:50;;;;;;;;;12.25;11.75;;;;;19.43;100.00;101076.44;5118933;27;45433;-68
2021/08/03 02:25:17;;;;;;;;;13.00;11.75;;;;;19.43;100.00;101080.88;5119088;27;45427;-67
2021/08/03 02:27:43;;;;;;;;;10.00;9.00;;;;;19.41;100.00;101078.28;5119219;27;45371;-68
2021/08/03 02:30:10;;;;;;;;;13.50;12.25;;;;;19.31;100.00;101054.97;5118445;27;47527;-68
2021/08/03 02:32:51;;;;;;;;;15.00;14.25;;;;;19.38;100.00;101078.44;5118746;27;45543;-71
2021/08/03 02:35:23;;;;;;;;;15.75;14.00;;;;;19.36;100.00;101080.28;5119227;27;45395;-68
2021/08/03 02:37:56;;;;;;;;;15.50;14.75;;;;;19.38;100.00;101080.22;5118857;27;45424;-69
2021/08/03 02:40:23;;;;;;;;;17.00;15.00;;;;;19.38;100.00;101077.56;5118617;27;46296;-67
2021/08/03 02:42:51;;;;;;;;;15.25;14.50;;;;;19.38;100.00;101073.13;5118528;27;45402;-67
2021/08/03 02:45:18;;;;;;;;;17.25;14.00;;;;;19.37;100.00;101082.00;5118659;27;45350;-68
2021/08/03 02:47:51;;;;;;;;;12.00;9.75;;;;;19.31;100.00;101065.56;5118877;27;45274;-68
2021/08/03 02:50:19;;;;;;;;;16.00;13.00;;;;;19.32;100.00;101068.13;5118523;27;47023;-68
2021/08/03 02:52:48;;;;;;;;;13.00;12.75;;;;;19.34;100.00;101071.56;5118442;27;45384;-69
2021/08/03 02:55:25;;;;;;;;;14.00;13.00;;;;;19.27;100.00;101068.34;5118669;27;45289;-68
2021/08/03 02:57:56;;;;;;;;;10.25;9.00;;;;;19.30;100.00;101067.34;5118819;27;45591;-68
2021/08/03 03:00:24;;;;;;;;;15.75;13.75;;;;;19.19;100.00;101054.56;5118752;27;45575;-68
2021/08/03 03:02:50;;;;;;;;;16.75;14.50;;;;;19.25;100.00;101064.06;5117274;27;45618;-68
2021/08/03 03:05:27;;;;;;;;;13.75;13.25;;;;;19.26;100.00;101065.78;5118777;27;45338;-69
2021/08/03 03:08:00;;;;;;;;;14.50;13.00;;;;;19.17;100.00;101047.63;5118899;27;45299;-68
2021/08/03 03:10:30;;;;;;;;;13.00;12.25;;;;;19.25;100.00;101048.16;5118485;27;45589;-68
2021/08/03 03:13:00;;;;;;;;;16.75;14.00;;;;;19.30;100.00;101040.00;5118179;27;45303;-68
2021/08/03 03:15:31;;;;;;;;;14.50;12.00;;;;;19.28;100.00;101042.72;5118693;27;45356;-68
2021/08/03 03:17:57;;;;;;;;;17.00;13.75;;;;;19.32;100.00;101046.94;5118476;27;45286;-68
2021/08/03 03:20:23;;;;;;;;;15.00;12.75;;;;;19.35;100.00;101049.44;5118354;27;45600;-68
2021/08/03 03:22:54;;;;;;;;;17.00;15.00;;;;;19.38;100.00;101043.16;5118058;27;45325;-68
2021/08/03 03:25:24;;;;;;;;;17.25;12.25;;;;;19.38;100.00;101041.38;5118219;27;45381;-68
2021/08/03 03:27:54;;;;;;;;;15.75;12.25;;;;;19.40;100.00;101049.25;5118283;27;45465;-68
2021/08/03 03:30:20;;;;;;;;;14.00;13.75;;;;;19.33;100.00;101046.03;5118199;27;46605;-69
2021/08/03 03:32:46;;;;;;;;;14.25;13.50;;;;;19.38;100.00;101049.31;5117960;27;45262;-68
2021/08/03 03:35:15;;;;;;;;;17.00;14.50;;;;;19.36;100.00;101045.88;5118021;27;45350;-68
2021/08/03 03:37:43;;;;;;;;;12.50;11.50;;;;;19.36;100.00;101051.16;5118166;27;45396;-68
2021/08/03 03:40:10;;;;;;;;;12.50;12.00;;;;;19.19;100.00;101019.31;5117676;27;46376;-69
2021/08/03 03:42:36;;;;;;;;;13.25;11.50;;;;;19.31;100.00;101047.03;5116904;27;45625;-68
2021/08/03 03:45:02;;;;;;;;;16.50;14.25;;;;;19.28;100.00;101048.88;5118243;27;45284;-68
2021/08/03 03:47:35;;;;;;;;;15.75;14.50;;;;;19.26;100.00;101057.81;5118387;27;45366;-69
2021/08/03 03:56:17;;;;;;;;;11.75;10.00;;;;;19.09;100.00;101058.56;5117871;27;45370;-68
2021/08/03 03:58:49;;;;;;;;;11.00;10.00;;;;;19.16;100.00;101067.94;5117873;27;45292;-69
2021/08/03 04:01:19;;;;;;;;;12.50;10.50;;;;;19.13;100.00;101059.28;5117394;27;47511;-68
2021/08/03 04:03:45;;;;;;;;;14.25;10.75;;;;;19.13;100.00;101062.78;5117892;27;45249;-69
2021/08/03 04:06:12;;;;;;;;;8.25;7.75;;;;;19.11;100.00;101054.06;5117650;27;45314;-68
2021/08/03 04:08:38;;;;;;;;;6.00;4.00;;;;;19.12;100.00;101054.94;5117948;27;45496;-69
2021/08/03 04:11:05;;;;;;;;;3.25;3.25;;;;;19.13;100.00;101046.06;5117447;27;46527;-69
2021/08/03 04:13:31;;;;;;;;;2.00;2.00;;;;;19.06;100.00;101036.69;5119313;27;45559;-69
2021/08/03 04:15:57;;;;;;;;;2.75;2.75;;;;;19.05;100.00;101037.63;5121194;27;45430;-68
2021/08/03 04:18:23;;;;;;;;;2.75;2.00;;;;;19.12;100.00;101061.06;5103066;27;45487;-68
2021/08/03 04:20:48;;;;;;;;;2.00;2.00;;;;;18.99;100.00;101044.00;5120674;27;46510;-68
2021/08/03 04:23:13;;;;;;;;;1.50;1.50;;;;;19.04;100.00;101049.13;5120857;27;45265;-69
2021/08/03 04:25:42;;;;;;;;;1.00;0.00;;;;;19.08;100.00;101062.16;5121302;27;45343;-68
2021/08/03 04:28:08;;;;;;;;;0.75;0.75;;;;;19.03;100.00;101056.22;5121541;27;45461;-69
2021/08/03 04:30:34;;;;;;;;;0.00;0.00;;;;;19.05;100.00;101054.34;5120732;27;46579;-69
2021/08/03 04:32:59;;;;;;;;;0.25;0.00;;;;;18.94;100.00;101043.38;5120760;27;45361;-68
2021/08/03 04:35:25;;;;;;;;;0.00;0.00;;;;;18.90;100.00;101044.44;5120759;27;45295;-69
2021/08/03 04:37:50;;;;;;;;;0.00;0.00;;;;;18.96;100.00;101049.44;5119829;27;45586;-68
2021/08/03 04:40:17;;;;;;;;;1.00;0.00;;;;;18.88;100.00;101030.41;5100003;27;47524;-68
2021/08/03 04:42:43;;;;;;;;;0.00;0.00;;;;;18.94;100.00;101053.94;5099766;27;45224;-69
2021/08/03 04:45:09;;;;;;;;;0.00;0.00;;;;;18.87;100.00;101045.44;5100147;27;45291;-68
2021/08/03 04:47:46;;;;;;;;;0.00;0.00;;;;;18.82;100.00;101059.78;5100560;27;45219;-69
2021/08/03 04:50:14;;;;;;;;;1.50;1.00;;;;;18.74;100.00;101062.75;5100062;27;46384;-69
2021/08/03 04:56:01;;;;;;;;;0.00;0.00;;;;;18.69;100.00;101058.59;5100004;27;45368;-69
2021/08/03 04:58:27;;;;;;;;;1.00;0.00;;;;;18.62;100.00;101048.28;5100257;27;45435;-69
2021/08/03 05:00:52;;;;;;;;;0.25;0.00;;;;;18.64;100.00;101051.72;5099282;27;47085;-68
2021/08/03 05:03:23;;;;;;;;;0.00;0.00;;;;;18.63;100.00;101044.69;5099134;27;45324;-69
2021/08/03 05:05:48;;;;;;;;;1.00;0.00;;;;;18.68;100.00;101047.16;5099739;27;45360;-69
2021/08/03 05:08:14;;;;;;;;;0.00;0.00;;;;;18.72;100.00;101050.50;5099846;27;45346;-69
2021/08/03 05:10:39;;;;;;;;;0.00;0.00;;;;;18.71;100.00;101039.06;5099559;27;46156;-69
2021/08/03 05:13:05;;;;;;;;;1.00;1.00;;;;;18.78;100.00;101060.81;5099660;27;45275;-69
2021/08/03 05:15:30;;;;;;;;;0.00;0.00;;;;;18.77;100.00;101051.16;5099704;27;45317;-69
2021/08/03 05:17:58;;;;;;;;;0.50;0.50;;;;;18.81;100.00;101047.50;5099695;27;45648;-69
2021/08/03 05:20:23;;;;;;;;;1.00;1.00;;;;;18.84;100.00;101044.72;5099111;27;45753;-69
2021/08/03 05:26:10;;;;;;;;;1.00;1.00;;;;;18.86;100.00;101042.84;5098697;27;45352;-71
2021/08/03 05:28:35;;;;;;;;;1.00;1.00;;;;;18.88;100.00;101054.22;5099128;27;45395;-68
2021/08/03 05:31:01;;;;;;;;;1.25;1.00;;;;;18.94;100.00;101059.25;5098793;27;46065;-70
2021/08/03 05:33:26;;;;;;;;;0.75;0.75;;;;;18.95;100.00;101058.31;5098992;27;45441;-68
2021/08/03 05:35:52;;;;;;;;;2.00;2.00;;;;;18.97;100.00;101056.47;5099141;27;45232;-68
2021/08/03 05:38:18;;;;;;;;;2.00;1.00;;;;;19.02;100.00;101064.22;5103792;27;45417;-68
2021/08/03 05:40:44;;;;;;;;;2.00;2.00;;;;;19.04;100.00;101067.66;5119255;27;46464;-68
2021/08/03 05:43:09;;;;;;;;;1.00;1.00;;;;;19.04;100.00;101065.88;5119385;27;45377;-67
2021/08/03 05:45:34;;;;;;;;;1.00;1.00;;;;;19.05;100.00;101056.13;5119677;27;45429;-67
2021/08/03 05:48:00;;;;;;;;;0.75;0.75;;;;;19.11;100.00;101069.09;5119589;27;45325;-67
2021/08/03 05:50:25;;;;;;;;;2.00;2.00;;;;;18.99;100.00;101054.59;5119397;27;47157;-68
2021/08/03 05:56:12;;;;;;;;;1.00;1.00;;;;;18.93;100.00;101047.78;5119472;27;45281;-69
2021/08/03 05:58:37;;;;;;;;;1.25;1.00;;;;;19.11;100.00;101080.53;5119891;27;45421;-70
2021/08/03 06:01:03;;;;;;;;;1.00;1.00;;;;;19.16;100.00;101090.91;5100720;27;47379;-69
2021/08/03 06:03:28;;;;;;;;;2.00;2.00;;;;;19.15;100.00;101082.13;5119050;27;45485;-69
2021/08/03 06:05:53;;;;;;;;;0.00;0.00;;;;;19.11;100.00;101062.00;5119486;27;45448;-69
2021/08/03 06:08:25;;;;;;;;;3.00;1.00;;;;;19.17;100.00;101068.81;5119390;27;45434;-68
2021/08/03 06:10:59;;;;;;;;;1.75;1.50;;;;;19.06;100.00;101039.31;5118904;27;46333;-68
2021/08/03 06:13:26;;;;;;;;;0.75;0.75;;;;;19.36;100.00;101090.88;5119031;27;45521;-68
2021/08/03 06:15:59;;;;;;;;;1.00;0.75;;;;;19.43;100.00;101083.53;5119451;27;45325;-69
2021/08/03 06:18:31;;;;;;;;;3.50;2.00;;;;;19.48;100.00;101076.25;5119556;27;45237;-68
2021/08/03 06:20:58;;;;;;;;;3.25;3.00;;;;;19.51;100.00;101079.59;5119217;27;45365;-69
2021/08/03 06:23:25;;;;;;;;;2.75;2.50;;;;;19.56;100.00;101075.00;5119315;27;45314;-68
2021/08/03 06:25:53;;;;;;;;;3.00;3.00;;;;;19.70;100.00;101089.41;5119077;27;45265;-69
2021/08/03 06:28:21;;;;;;;;;3.50;2.75;;;;;19.75;100.00;101080.28;5119414;27;45353;-70
2021/08/03 06:30:48;;;;;;;;;3.50;3.25;;;;;19.88;100.00;101080.56;5118900;27;45603;-69
2021/08/03 06:33:16;;;;;;;;;4.00;4.00;;;;;19.97;100.00;101084.59;5118911;27;45526;-69
2021/08/03 06:35:41;;;;;;;;;5.75;3.00;;;;;20.13;100.00;101097.00;5118428;27;45290;-69
2021/08/03 06:41:45;;;;;;;;;4.00;4.00;;;;;20.43;100.00;101094.69;5116856;27;45301;-69
2021/08/03 06:44:16;;;;;;;;;5.00;4.25;;;;;20.54;100.00;101103.91;5118506;27;45441;-69
2021/08/03 06:46:45;;;;;;;;;4.00;3.75;;;;;20.58;100.00;101106.31;5118783;27;45279;-69
2021/08/03 06:49:15;;;;;;;;;7.00;5.25;;;;;20.59;100.00;101100.09;5118773;27;45485;-69
2021/08/03 06:51:41;;;;;;;;;3.75;3.25;;;;;20.59;100.00;101101.88;5118222;27;46656;-70
2021/08/03 06:54:13;;;;;;;;;3.25;3.25;;;;;20.61;100.00;101102.69;5118659;27;45230;-69
2021/08/03 06:56:43;;;;;;;;;6.00;4.00;;;;;20.53;100.00;101086.28;5118642;27;45236;-69
2021/08/03 06:59:17;;;;;;;;;5.00;3.00;;;;;20.59;100.00;101100.09;5118736;27;45475;-69
2021/08/03 07:01:52;;;;;;;;;5.25;4.75;;;;;20.64;100.00;101099.88;5118157;27;47358;-69
2021/08/03 07:05:01;;;;;;;;;4.00;3.50;;;;;20.72;100.00;101113.59;5118279;27;45416;-68
2021/08/03 07:07:27;;;;;;;;;4.00;4.00;;;;;20.75;100.00;101108.13;5038393;28;45414;-70
2021/08/03 07:09:54;;;;;;;;;5.25;4.00;;;;;20.80;100.00;101111.41;5038345;28;45378;-71
2021/08/03 07:12:21;;;;;;;;;3.75;3.75;;;;;20.86;100.00;101105.81;5055026;28;45432;-70
2021/08/03 07:14:48;;;;;;;;;4.25;3.50;;;;;20.98;100.00;101115.78;5054799;28;45315;-69
2021/08/03 07:17:14;;;;;;;;;4.75;4.50;;;;;21.14;100.00;101120.31;5054876;28;45398;-70
2021/08/03 07:19:40;;;;;;;;;3.00;3.00;;;;;21.24;100.00;101113.59;5055345;28;45499;-68
2021/08/03 07:22:09;;;;;;;;;6.25;4.00;;;;;21.42;100.00;101114.44;5054464;28;47185;-68
2021/08/03 07:24:36;;;;;;;;;4.00;3.75;;;;;21.52;100.00;101105.03;5054898;28;45289;-69
2021/08/03 07:27:02;;;;;;;;;3.00;3.00;;;;;21.67;100.00;101105.03;5054848;28;45535;-70
2021/08/03 07:29:27;;;;;;;;;4.75;3.75;;;;;21.74;100.00;101102.06;5054786;28;45434;-69
2021/08/03 07:31:53;;;;;;;;;4.00;3.00;;;;;21.82;100.00;101107.81;5054337;28;46179;-69
2021/08/03 07:34:19;;;;;;;;;3.00;3.00;;;;;21.86;100.00;101112.00;5054867;28;45492;-69
2021/08/03 07:36:44;;;;;;;;;3.00;3.00;;;;;21.92;100.00;101124.97;5054319;28;45407;-70
2021/08/03 07:39:10;;;;;;;;;3.00;3.00;;;;;21.95;100.00;101127.44;5055029;28;45424;-70
2021/08/03 07:41:39;;;;;;;;;3.00;3.00;;;;;21.98;100.00;101119.31;5054036;28;47062;-70
2021/08/03 07:44:05;;;;;;;;;5.00;3.00;;;;;22.12;100.00;101118.56;5117760;27;45358;-70
2021/08/03 07:46:32;;;;;;;;;4.00;3.25;;;;;22.30;100.00;101126.38;5118006;27;45244;-70
2021/08/03 07:48:58;;;;;;;;;5.25;5.00;;;;;22.49;100.00;101120.00;5101831;27;45569;-70
2021/08/03 07:51:25;;;;;;;;;4.00;3.50;;;;;22.65;100.00;101120.84;5121550;27;45605;-70
2021/08/03 07:53:50;;;;;;;;;2.75;2.75;;;;;22.74;100.00;101108.78;5121318;27;45582;-70
2021/08/03 07:56:17;;;;;;;;;3.50;2.50;;;;;22.84;100.00;101109.97;5121363;27;45354;-68
2021/08/03 07:58:42;;;;;;;;;4.25;4.25;;;;;22.87;100.00;101121.31;5121500;27;45456;-70
2021/08/03 08:01:08;;;;;;;;;5.00;4.25;;;;;22.85;100.00;101117.00;5120786;27;46322;-70
2021/08/03 08:03:35;;;;;;;;;3.50;3.25;;;;;22.75;100.00;101116.66;5121249;27;45221;-69
2021/08/03 08:06:01;;;;;;;;;3.50;3.00;;;;;22.59;100.00;101095.41;5121194;27;45378;-69
2021/08/03 08:11:49;;;;;;;;;2.50;2.50;;;;;22.54;100.00;101112.59;5120823;27;45732;-68
2021/08/03 08:14:14;;;;;;;;;4.25;4.00;;;;;22.44;100.00;101106.13;5121141;27;45293;-68
2021/08/03 08:16:39;;;;;;;;;4.00;3.25;;;;;22.41;100.00;101114.28;5121066;27;45399;-69
2021/08/03 08:19:05;;;;;;;;;2.75;2.50;;;;;22.41;100.00;101111.63;5121170;27;45237;-69
2021/08/03 08:21:33;;;;;;;;;4.00;3.50;;;;;22.40;100.00;101093.91;5120502;27;47427;-69
2021/08/03 08:24:03;;;;;;;;;3.00;3.00;;;;;22.54;100.00;101107.28;5102276;27;45344;-67
2021/08/03 08:26:28;;;;;;;;;2.75;2.75;;;;;22.60;100.00;101101.59;5121041;27;45283;-68
2021/08/03 08:28:54;;;;;;;;;5.25;3.50;;;;;22.60;100.00;101091.78;5120933;27;45238;-68
2021/08/03 08:31:19;;;;;;;;;3.25;2.75;;;;;22.74;100.00;101098.97;5120545;27;46807;-68
2021/08/03 08:33:45;;;;;;;;;2.00;2.00;;;;;22.74;100.00;101101.66;5120462;27;45395;-68
2021/08/03 08:36:10;;;;;;;;;3.00;3.00;;;;;22.69;100.00;101097.53;5120639;27;45292;-68
2021/08/03 08:41:58;;;;;;;;;3.00;3.00;;;;;22.58;100.00;101092.84;5119143;27;45453;-68
2021/08/03 08:44:23;;;;;;;;;3.00;3.00;;;;;22.54;100.00;101091.31;5120941;27;45244;-68
2021/08/03 08:46:51;;;;;;;;;3.00;2.75;;;;;22.57;100.00;101107.09;5120528;27;45286;-67
2021/08/03 08:49:17;;;;;;;;;5.00;5.00;;;;;22.59;100.00;101091.88;5120583;27;45302;-68
2021/08/03 08:51:43;;;;;;;;;3.00;3.00;;;;;22.80;100.00;101093.28;5101709;27;48277;-70
2021/08/03 08:54:08;;;;;;;;;3.75;3.75;;;;;22.90;100.00;101090.97;5120263;27;45631;-68
2021/08/03 08:56:34;;;;;;;;;3.50;3.25;;;;;22.92;100.00;101089.06;5120447;27;45329;-68
2021/08/03 08:59:02;;;;;;;;;5.00;5.00;;;;;22.95;100.00;101096.03;5119975;27;45355;-68
2021/08/03 09:01:27;;;;;;;;;3.00;3.00;;;;;23.08;100.00;101102.31;5119518;27;47442;-68
2021/08/03 09:03:53;;;;;;;;;4.25;3.50;;;;;23.22;100.00;101105.00;5120086;27;45213;-68
2021/08/03 09:06:20;;;;;;;;;2.75;2.25;;;;;23.36;100.00;101105.03;5120253;27;45230;-71
2021/08/03 09:12:08;;;;;;;;;4.50;3.50;;;;;23.95;100.00;101100.41;5120118;27;45359;-69
2021/08/03 09:14:36;;;;;;;;;4.00;4.00;;;;;24.47;100.00;101098.88;5119881;27;45484;-69
2021/08/03 09:17:03;;;;;;;;;5.00;4.00;;;;;25.01;100.00;101107.66;5119960;27;45297;-72
2021/08/03 09:19:39;;;;;;;;;4.00;4.00;;;;;25.37;100.00;101098.03;5120465;27;45350;-70
2021/08/03 09:22:12;;;;;;;;;4.50;4.00;;;;;25.67;100.00;101103.91;5119597;27;46621;-68
2021/08/03 09:24:38;;;;;;;;;4.00;4.00;;;;;25.82;100.00;101108.16;5119886;27;45443;-70
2021/08/03 09:27:03;;;;;;;;;5.00;3.50;;;;;25.75;100.00;101106.88;5119831;27;45460;-70
2021/08/03 09:29:42;;;;;;;;;3.75;3.75;;;;;25.45;100.00;101111.72;5120002;27;45380;-69
2021/08/03 09:32:08;;;;;;;;;4.25;3.50;;;;;25.18;100.00;101106.50;5119573;27;46156;-70
2021/08/03 09:34:33;;;;;;;;;3.50;3.50;;;;;25.01;100.00;101118.34;5101125;27;45284;-69
2021/08/03 09:36:59;;;;;;;;;3.75;3.50;;;;;24.79;100.00;101112.72;5119521;27;45717;-69
2021/08/03 09:39:38;;;;;;;;;3.50;3.50;;;;;24.67;100.00;101115.25;5101812;27;45373;-69
2021/08/03 09:42:27;;;;;;;;;5.00;5.00;;;;;24.57;100.00;101119.50;5100524;27;46272;-69
2021/08/03 09:45:07;;;;;;;;;5.00;4.00;;;;;24.69;100.00;101117.84;5100760;27;45404;-70
2021/08/03 09:47:39;;;;;;;;;5.00;5.00;;;;;24.89;100.00;101117.31;5119399;27;45440;-69
2021/08/03 09:50:08;;;;;;;;;3.50;3.50;;;;;25.04;100.00;101115.44;5101085;27;45614;-69
2021/08/03 09:52:35;;;;;;;;;3.00;3.00;;;;;25.17;100.00;101116.31;5118994;27;46746;-70
2021/08/03 09:55:19;;;;;;;;;3.00;2.50;;;;;25.51;100.00;101112.13;5119371;27;45309;-69
2021/08/03 09:57:46;;;;;;;;;7.75;6.50;;;;;26.53;100.00;101107.38;5119296;27;45440;-70
2021/08/03 10:00:34;;;;;;;;;6.75;5.50;;;;;27.71;100.00;101096.41;5119364;27;45505;-70
2021/08/03 10:03:00;;;;;;;;;5.00;5.00;;;;;27.99;100.00;101100.41;5118764;27;47222;-69
2021/08/03 10:05:26;;;;;;;;;2.75;2.75;;;;;27.82;100.00;101089.31;5118885;27;45500;-69
2021/08/03 10:07:53;;;;;;;;;2.00;2.00;;;;;27.74;100.00;101096.16;5119014;27;45265;-69
2021/08/03 10:10:20;;;;;;;;;3.25;2.50;;;;;28.89;100.00;101090.19;5119098;27;45453;-69
2021/08/03 10:12:46;;;;;;;;;5.00;5.00;;;;;29.54;100.00;101097.09;5118912;27;45643;-69
2021/08/03 10:15:12;;;;;;;;;4.25;3.25;;;;;28.90;100.00;101086.53;5118784;27;45522;-69
2021/08/03 10:17:38;;;;;;;;;3.00;3.00;;;;;28.03;100.00;101085.75;5119232;27;45282;-70
2021/08/03 10:20:06;;;;;;;;;4.00;4.00;;;;;27.37;100.00;101097.34;5117860;27;45301;-69
2021/08/03 10:22:55;;;;;;;;;3.00;3.00;;;;;26.79;100.00;101091.16;5118512;27;46188;-69
2021/08/03 10:25:33;;;;;;;;;4.00;3.75;;;;;26.36;100.00;101104.25;5104306;27;45460;-70
2021/08/03 10:27:58;;;;;;;;;3.50;3.25;;;;;26.08;100.00;101105.41;5118760;27;45181;-69
2021/08/03 10:30:26;;;;;;;;;2.25;2.25;;;;;25.82;100.00;101115.34;5118848;27;45228;-69
2021/08/03 10:32:53;;;;;;;;;3.00;3.00;;;;;25.65;100.00;101109.34;5118588;27;47416;-68
2021/08/03 10:35:36;;;;;;;;;2.00;2.00;;;;;25.55;100.00;101104.75;5118461;27;45437;-69
2021/08/03 10:38:02;;;;;;;;;4.00;3.00;;;;;25.38;100.00;101097.94;5118717;27;45306;-68
2021/08/03 10:40:46;;;;;;;;;3.25;2.50;;;;;25.12;100.00;101093.53;5119089;27;45209;-68
2021/08/03 10:43:24;;;;;;;;;4.00;4.00;;;;;24.91;100.00;101091.38;5118293;27;47463;-69
2021/08/03 10:46:09;;;;;;;;;3.75;3.00;;;;;24.80;100.00;101088.56;5118423;27;45498;-69
2021/08/03 10:48:42;;;;;;;;;2.25;2.00;;;;;24.81;100.00;101097.44;5118540;27;45346;-67
2021/08/03 10:51:28;;;;;;;;;5.25;4.00;;;;;25.30;100.00;101103.81;5118874;27;45475;-68
2021/08/03 10:54:13;;;;;;;;;4.50;4.50;;;;;26.61;100.00;101100.59;5108016;27;47061;-67
2021/08/03 10:56:59;;;;;;;;;3.75;3.50;;;;;28.88;100.00;101101.09;5118298;27;45346;-67
2021/08/03 10:59:54;;;;;;;;;3.00;3.00;;;;;29.92;100.00;101097.38;5118386;27;45344;-68
2021/08/03 11:02:22;;;;;;;;;4.00;3.00;;;;;29.46;100.00;101104.16;5117901;27;45271;-67
2021/08/03 11:04:48;;;;;;;;;3.50;3.00;;;;;29.54;100.00;101101.63;5118586;27;46587;-68
2021/08/03 11:10:35;;;;;;;;;3.75;3.00;;;;;32.61;100.00;101083.28;5118454;27;45463;-70
2021/08/03 11:13:03;;;;;;;;;2.75;2.00;;;;;33.66;100.00;101086.66;5118772;27;45345;-69
2021/08/03 11:15:35;;;;;;;;;1.00;1.00;;;;;34.00;98.67;101096.63;5118318;27;45379;-68
2021/08/03 11:18:10;;;;;;;;;2.00;2.00;;;;;34.33;91.66;101094.81;5118340;27;45565;-67
2021/08/03 11:20:35;;;;;;;;;4.00;3.00;;;;;34.68;92.32;101096.41;5118319;27;45347;-68
2021/08/03 11:26:24;;;;;;;;;1.50;1.00;;;;;31.93;90.73;101100.81;5121670;27;45327;-68
2021/08/03 11:28:57;;;;;;;;;3.00;2.50;;;;;30.37;92.63;101098.59;5121593;27;45552;-68
2021/08/03 11:31:43;;;;;;;;;2.75;2.25;;;;;29.14;97.83;101102.38;5103738;27;45512;-70
2021/08/03 11:34:09;;;;;;;;;3.00;3.00;;;;;27.80;100.00;101086.75;5110972;27;45508;-69
2021/08/03 11:36:38;;;;;;;;;3.00;3.00;;;;;26.95;100.00;101096.19;5121659;27;46212;-68
2021/08/03 11:42:42;;;;;;;;;2.00;2.00;;;;;25.12;100.00;101109.56;5120883;27;45419;-68
2021/08/03 11:45:09;;;;;;;;;6.00;4.75;;;;;24.52;100.00;101113.59;5122209;27;45613;-73
2021/08/03 11:48:00;;;;;;;;;6.25;5.50;;;;;24.01;100.00;101110.72;5102859;27;46863;-70
2021/08/03 11:50:39;;;;;;;;;5.00;5.00;;;;;23.63;100.00;101109.59;5057803;28;45550;-70
2021/08/03 11:53:05;;;;;;;;;4.25;4.25;;;;;23.25;100.00;101096.81;5058054;28;45325;-70
2021/08/03 11:55:31;;;;;;;;;6.00;5.00;;;;;23.05;100.00;101102.50;5058185;28;45755;-69
2021/08/03 11:58:00;;;;;;;;;8.00;6.25;;;;;22.76;100.00;101094.41;5057615;28;47430;-72
2021/08/03 12:00:25;;;;;;;;;6.00;5.00;;;;;22.52;100.00;101096.72;5057461;28;45535;-69
2021/08/03 12:02:54;;;;;;;;;4.00;4.00;;;;;22.41;100.00;101106.28;5057656;28;45409;-69
2021/08/03 12:05:30;;;;;;;;;5.75;5.00;;;;;22.21;100.00;101100.31;5057855;28;45647;-70
2021/08/03 12:07:55;;;;;;;;;4.50;4.00;;;;;22.07;100.00;101107.34;5057484;28;46552;-69
2021/08/03 12:10:33;;;;;;;;;4.50;0.50;;;;;21.90;100.00;101095.81;5057689;28;45345;-69